createdAt,value
2024-02-01T00:01:16.449Z,-80
2024-02-01T00:04:25.582Z,-80
2024-02-01T00:07:31.308Z,-79
2024-02-01T00:10:37.777Z,-80
2024-02-01T00:13:43.461Z,-81
2024-02-01T00:16:50.025Z,-81
2024-02-01T00:19:58.412Z,-80
2024-02-01T00:23:04.943Z,-80
2024-02-01T00:26:10.671Z,-81
2024-02-01T00:29:17.167Z,-80
2024-02-01T00:32:22.843Z,-79
2024-02-01T00:35:32.014Z,-81
2024-02-01T00:38:38.236Z,-81
2024-02-01T00:41:44.835Z,-80
2024-02-01T00:44:50.614Z,-80
2024-02-01T00:47:57.349Z,-81
2024-02-01T00:51:07.825Z,-80
2024-02-01T00:54:14.465Z,-80
2024-02-01T00:57:20.304Z,-81
2024-02-01T01:00:26.995Z,-81
2024-02-01T01:03:33.066Z,-81
2024-02-01T01:06:42.372Z,-79
2024-02-01T01:09:48.192Z,-80
2024-02-01T01:12:54.792Z,-80
2024-02-01T01:16:00.532Z,-82
2024-02-01T01:19:07.388Z,-81
2024-02-01T01:22:15.863Z,-82
2024-02-01T01:25:22.746Z,-82
2024-02-01T01:28:28.459Z,-80
2024-02-01T01:31:35.225Z,-80
2024-02-01T01:34:40.935Z,-79
2024-02-01T01:37:50.100Z,-80
2024-02-01T01:40:55.752Z,-80
2024-02-01T01:44:02.446Z,-82
2024-02-01T01:47:09.009Z,-81
2024-02-01T01:50:16.266Z,-80
2024-02-01T01:53:26.159Z,-79
2024-02-01T01:56:33.410Z,-80
2024-02-01T01:59:39.425Z,-81
2024-02-01T02:02:47.879Z,-82
2024-02-01T02:05:53.895Z,-80
2024-02-01T02:09:04.372Z,-81
2024-02-01T02:12:12.149Z,-81
2024-02-01T02:15:18.819Z,-82
2024-02-01T02:18:24.658Z,-80
2024-02-01T02:21:34.672Z,-78
2024-02-01T02:24:43.198Z,-80
2024-02-01T02:27:49.784Z,-79
2024-02-01T02:30:57.355Z,-79
2024-02-01T02:34:03.976Z,-79
2024-02-01T02:37:10.240Z,-79
2024-02-01T02:40:21.958Z,-80
2024-02-01T02:43:27.619Z,-80
2024-02-01T02:46:34.786Z,-81
2024-02-01T02:49:40.541Z,-79
2024-02-01T02:52:48.851Z,-79
2024-02-01T02:55:57.346Z,-80
2024-02-01T02:59:03.899Z,-79
2024-02-01T03:02:10.407Z,-85
2024-02-01T03:05:17.064Z,-79
2024-02-01T03:08:23.051Z,-79
2024-02-01T03:11:32.418Z,-80
2024-02-01T03:14:40.981Z,-80
2024-02-01T03:17:47.700Z,-81
2024-02-01T03:20:53.508Z,-79
2024-02-01T03:24:02.478Z,-80
2024-02-01T03:27:13.691Z,-80
2024-02-01T03:30:21.415Z,-80
2024-02-01T03:33:27.347Z,-81
2024-02-01T03:36:34.334Z,-80
2024-02-01T03:39:40.119Z,-81
2024-02-01T03:42:49.587Z,-79
2024-02-01T03:45:55.208Z,-79
2024-02-01T03:49:01.920Z,-80
2024-02-01T03:52:09.125Z,-79
2024-02-01T03:55:21.626Z,-82
2024-02-01T03:58:30.266Z,-80
2024-02-01T04:01:36.915Z,-81
2024-02-01T04:04:46.646Z,-81
2024-02-01T04:07:53.388Z,-81
2024-02-01T04:10:59.670Z,-81
2024-02-01T04:14:08.864Z,-81
2024-02-01T04:17:14.652Z,-82
2024-02-01T04:20:21.660Z,-81
2024-02-01T04:23:27.353Z,-80
2024-02-01T04:26:33.996Z,-80
2024-02-01T04:29:42.335Z,-81
2024-02-01T04:32:50.002Z,-79
2024-02-01T04:35:56.005Z,-79
2024-02-01T04:39:05.026Z,-80
2024-02-01T04:42:19.347Z,-80
2024-02-01T04:45:28.564Z,-80
2024-02-01T04:48:35.659Z,-79
2024-02-01T04:51:43.865Z,-80
2024-02-01T04:54:49.729Z,-82
2024-02-01T04:57:56.178Z,-79
2024-02-01T05:01:11.997Z,-79
2024-02-01T05:04:20.458Z,-79
2024-02-01T05:07:26.253Z,-79
2024-02-01T05:10:33.783Z,-81
2024-02-01T05:13:39.604Z,-80
2024-02-01T05:16:50.527Z,-80
2024-02-01T05:20:00.647Z,-81
2024-02-01T05:23:07.813Z,-79
2024-02-01T05:26:15.335Z,-80
2024-02-01T05:29:23.338Z,-79
2024-02-01T05:32:31.793Z,-80
2024-02-01T05:35:38.510Z,-80
2024-02-01T05:38:44.481Z,-81
2024-02-01T05:41:51.408Z,-80
2024-02-01T05:44:57.022Z,-80
2024-02-01T05:48:06.306Z,-79
2024-02-01T05:51:12.124Z,-79
2024-02-01T05:54:19.331Z,-80
2024-02-01T05:57:25.128Z,-80
2024-02-01T06:00:31.784Z,-80
2024-02-01T06:03:40.165Z,-81
2024-02-01T06:06:49.904Z,-81
2024-02-01T06:09:56.189Z,-82
2024-02-01T06:13:02.650Z,-79
2024-02-01T06:16:10.719Z,-80
2024-02-01T06:19:20.230Z,-81
2024-02-01T06:22:26.080Z,-79
2024-02-01T06:25:32.652Z,-82
2024-02-01T06:28:38.497Z,-82
2024-02-01T06:31:45.006Z,-91
2024-02-01T06:34:55.929Z,-92
2024-02-01T06:38:17.209Z,-91
2024-02-01T06:41:29.791Z,-91
2024-02-01T06:44:45.346Z,-90
2024-02-01T06:47:52.312Z,-95
2024-02-01T06:51:11.946Z,-93
2024-02-01T06:54:40.113Z,-91
2024-02-01T06:57:46.680Z,-92
2024-02-01T07:01:03.992Z,-92
2024-02-01T07:04:18.010Z,-92
2024-02-01T07:07:31.289Z,-93
2024-02-01T07:10:44.930Z,-92
2024-02-01T07:13:59.725Z,-92
2024-02-01T07:17:28.689Z,-90
2024-02-01T07:20:48.630Z,-92
2024-02-01T07:24:08.907Z,-92
2024-02-01T07:27:29.252Z,-91
2024-02-01T07:30:48.185Z,-90
2024-02-01T07:34:06.886Z,-93
2024-02-01T07:37:25.823Z,-91
2024-02-01T07:40:46.630Z,-88
2024-02-01T07:44:05.598Z,-91
2024-02-01T07:47:23.746Z,-91
2024-02-01T07:50:42.628Z,-90
2024-02-01T07:54:00.850Z,-89
2024-02-01T07:57:23.498Z,-93
2024-02-01T08:00:35.679Z,-93
2024-02-01T08:04:03.377Z,-89
2024-02-01T08:07:21.680Z,-80
2024-02-01T08:10:28.376Z,-88
2024-02-01T08:13:36.912Z,-89
2024-02-01T08:16:44.602Z,-83
2024-02-01T08:19:50.583Z,-83
2024-02-01T08:22:57.206Z,-83
2024-02-01T08:26:04.487Z,-88
2024-02-01T08:29:15.671Z,-87
2024-02-01T08:32:21.581Z,-88
2024-02-01T08:35:28.286Z,-84
2024-02-01T08:38:35.716Z,-89
2024-02-01T08:41:43.974Z,-90
2024-02-01T08:44:52.253Z,-89
2024-02-01T08:48:02.765Z,-89
2024-02-01T08:51:09.746Z,-84
2024-02-01T08:54:16.662Z,-90
2024-02-01T08:57:23.218Z,-88
2024-02-01T09:00:33.784Z,-86
2024-02-01T09:03:40.999Z,-90
2024-02-01T09:06:56.801Z,-90
2024-02-01T09:10:11.287Z,-89
2024-02-01T09:13:25.701Z,-89
2024-02-01T09:16:34.669Z,-89
2024-02-01T09:19:43.024Z,-83
2024-02-01T09:22:50.414Z,-90
2024-02-01T09:25:57.018Z,-88
2024-02-01T09:29:13.099Z,-86
2024-02-01T09:32:23.935Z,-85
2024-02-01T09:35:29.699Z,-89
2024-02-01T09:38:36.272Z,-88
2024-02-01T09:41:42.481Z,-91
2024-02-01T09:44:49.688Z,-89
2024-02-01T09:47:59.473Z,-88
2024-02-01T09:51:06.103Z,-93
2024-02-01T09:54:13.858Z,-92
2024-02-01T09:57:20.998Z,-89
2024-02-01T10:00:29.274Z,-87
2024-02-01T10:03:38.629Z,-90
2024-02-01T10:06:44.519Z,-89
2024-02-01T10:09:53.663Z,-92
2024-02-01T10:13:00.345Z,-91
2024-02-01T10:16:14.881Z,-90
2024-02-01T10:19:23.944Z,-90
2024-02-01T10:22:34.000Z,-90
2024-02-01T10:25:43.949Z,-90
2024-02-01T10:28:51.920Z,-84
2024-02-01T10:32:09.146Z,-85
2024-02-01T10:35:23.640Z,-85
2024-02-01T10:38:31.451Z,-88
2024-02-01T10:41:49.921Z,-87
2024-02-01T10:45:01.546Z,-88
2024-02-01T10:48:16.330Z,-85
2024-02-01T10:51:28.070Z,-87
2024-02-01T10:54:38.789Z,-88
2024-02-01T10:57:47.525Z,-88
2024-02-01T11:00:57.327Z,-90
2024-02-01T11:04:12.725Z,-88
2024-02-01T11:07:29.596Z,-85
2024-02-01T11:10:36.261Z,-91
2024-02-01T11:13:43.798Z,-84
2024-02-01T11:16:53.300Z,-86
2024-02-01T11:20:00.326Z,-90
2024-02-01T11:23:12.434Z,-89
2024-02-01T11:26:21.013Z,-90
2024-02-01T11:29:36.696Z,-89
2024-02-01T11:32:48.450Z,-90
2024-02-01T11:35:54.824Z,-90
2024-02-01T11:39:04.254Z,-92
2024-02-01T11:42:17.133Z,-89
2024-02-01T11:45:27.752Z,-92
2024-02-01T11:48:34.187Z,-91
2024-02-01T11:51:42.133Z,-87
2024-02-01T11:54:55.372Z,-90
2024-02-01T11:58:02.768Z,-89
2024-02-01T12:01:13.241Z,-95
2024-02-01T12:04:26.896Z,-91
2024-02-01T12:07:32.934Z,-90
2024-02-01T12:10:48.031Z,-90
2024-02-01T12:13:56.217Z,-87
2024-02-01T12:17:05.467Z,-89
2024-02-01T12:20:14.102Z,-91
2024-02-01T12:23:21.309Z,-91
2024-02-01T12:26:31.621Z,-85
2024-02-01T12:29:38.622Z,-84
2024-02-01T12:32:45.759Z,-88
2024-02-01T12:35:52.348Z,-86
2024-02-01T12:38:58.169Z,-84
2024-02-01T12:42:09.226Z,-86
2024-02-01T12:45:19.130Z,-87
2024-02-01T12:48:26.091Z,-86
2024-02-01T12:51:31.916Z,-85
2024-02-01T12:54:39.922Z,-88
2024-02-01T12:57:49.892Z,-83
2024-02-01T13:00:57.120Z,-87
2024-02-01T13:04:03.313Z,-84
2024-02-01T13:07:13.397Z,-87
2024-02-01T13:10:19.332Z,-89
2024-02-01T13:13:28.523Z,-87
2024-02-01T13:16:34.261Z,-91
2024-02-01T13:19:42.189Z,-87
2024-02-01T13:22:48.299Z,-83
2024-02-01T13:25:55.797Z,-88
2024-02-01T13:29:04.440Z,-89
2024-02-01T13:32:11.308Z,-85
2024-02-01T13:35:17.438Z,-89
2024-02-01T13:38:27.764Z,-88
2024-02-01T13:41:33.718Z,-87
2024-02-01T13:44:43.046Z,-88
2024-02-01T13:47:53.370Z,-89
2024-02-01T13:51:05.137Z,-89
2024-02-01T13:54:11.328Z,-89
2024-02-01T13:57:18.023Z,-84
2024-02-01T14:00:30.015Z,-88
2024-02-01T14:03:36.831Z,-89
2024-02-01T14:06:42.635Z,-84
2024-02-01T14:09:49.106Z,-89
2024-02-01T14:12:54.882Z,-88
2024-02-01T14:16:04.670Z,-91
2024-02-01T14:19:10.566Z,-89
2024-02-01T14:22:17.495Z,-90
2024-02-01T14:25:26.175Z,-83
2024-02-01T14:28:33.232Z,-87
2024-02-01T14:31:41.824Z,-87
2024-02-01T14:34:49.044Z,-86
2024-02-01T14:37:56.699Z,-89
2024-02-01T14:41:03.565Z,-90
2024-02-01T14:44:09.500Z,-86
2024-02-01T14:47:18.652Z,-88
2024-02-01T14:50:24.313Z,-85
2024-02-01T14:53:30.854Z,-90
2024-02-01T14:56:37.205Z,-91
2024-02-01T14:59:43.778Z,-87
2024-02-01T15:02:53.369Z,-87
2024-02-01T15:06:00.189Z,-86
2024-02-01T15:09:08.242Z,-87
2024-02-01T15:12:15.153Z,-86
2024-02-01T15:15:22.857Z,-83
2024-02-01T15:18:33.584Z,-88
2024-02-01T15:21:40.990Z,-86
2024-02-01T15:24:47.487Z,-88
2024-02-01T15:27:56.032Z,-87
2024-02-01T15:31:03.598Z,-89
2024-02-01T15:34:17.056Z,-89
2024-02-01T15:37:23.871Z,-88
2024-02-01T15:40:29.958Z,-85
2024-02-01T15:43:37.651Z,-85
2024-02-01T15:46:44.495Z,-82
2024-02-01T15:49:57.346Z,-84
2024-02-01T15:53:03.761Z,-81
2024-02-01T15:56:11.072Z,-83
2024-02-01T15:59:16.773Z,-84
2024-02-01T16:02:23.285Z,-86
2024-02-01T16:06:05.497Z,-86
2024-02-01T16:09:14.378Z,-83
2024-02-01T16:12:23.534Z,-88
2024-02-01T16:15:41.205Z,-84
2024-02-01T16:18:47.315Z,-88
2024-02-01T16:21:57.190Z,-88
2024-02-01T16:25:03.339Z,-88
2024-02-01T16:28:10.959Z,-83
2024-02-01T16:31:19.624Z,-84
2024-02-01T16:34:47.328Z,-81
2024-02-01T16:37:55.714Z,-86
2024-02-01T16:41:02.762Z,-85
2024-02-01T16:44:10.074Z,-83
2024-02-01T16:47:29.482Z,-82
2024-02-01T16:50:49.944Z,-81
2024-02-01T16:53:59.257Z,-89
2024-02-01T16:57:08.752Z,-85
2024-02-01T17:00:18.978Z,-89
2024-02-01T17:03:29.016Z,-92
2024-02-01T17:06:38.311Z,-89
2024-02-01T17:09:46.827Z,-86
2024-02-01T17:12:53.390Z,-88
2024-02-01T17:15:59.711Z,-89
2024-02-01T17:19:06.836Z,-92
2024-02-01T17:22:24.744Z,-90
2024-02-01T17:26:20.552Z,-89
2024-02-01T17:29:30.483Z,-84
2024-02-01T17:32:39.827Z,-84
2024-02-01T17:35:45.695Z,-87
2024-02-01T17:38:53.288Z,-85
2024-02-01T17:42:06.690Z,-87
2024-02-01T17:45:40.849Z,-88
2024-02-01T17:49:01.244Z,-88
2024-02-01T17:52:27.359Z,-86
2024-02-01T17:55:56.988Z,-91
2024-02-01T17:59:08.960Z,-90
2024-02-01T18:02:25.570Z,-90
2024-02-01T18:05:35.549Z,-91
2024-02-01T18:08:45.769Z,-89
2024-02-01T18:11:54.987Z,-89
2024-02-01T18:15:05.815Z,-91
2024-02-01T18:18:14.394Z,-89
2024-02-01T18:21:24.415Z,-85
2024-02-01T18:24:43.573Z,-90
2024-02-01T18:27:53.130Z,-90
2024-02-01T18:31:05.177Z,-90
2024-02-01T18:34:32.242Z,-90
2024-02-01T18:37:38.902Z,-91
2024-02-01T18:40:52.648Z,-89
2024-02-01T18:44:25.812Z,-90
2024-02-01T18:47:41.770Z,-91
2024-02-01T18:50:49.093Z,-91
2024-02-01T18:53:59.782Z,-88
2024-02-01T18:57:12.463Z,-87
2024-02-01T19:00:44.850Z,-87
2024-02-01T19:04:17.158Z,-90
2024-02-01T19:07:23.269Z,-89
2024-02-01T19:10:44.947Z,-87
2024-02-01T19:14:04.435Z,-90
2024-02-01T19:17:27.614Z,-90
2024-02-01T19:20:36.018Z,-90
2024-02-01T19:23:43.415Z,-90
2024-02-01T19:26:50.590Z,-90
2024-02-01T19:29:57.419Z,-88
2024-02-01T19:33:05.577Z,-87
2024-02-01T19:36:33.855Z,-86
2024-02-01T19:39:42.086Z,-89
2024-02-01T19:42:50.304Z,-89
2024-02-01T19:45:56.177Z,-90
2024-02-01T19:49:03.197Z,-90
2024-02-01T19:52:11.823Z,-88
2024-02-01T19:55:29.199Z,-89
2024-02-01T19:58:35.090Z,-88
2024-02-01T20:01:41.808Z,-89
2024-02-01T20:04:47.996Z,-87
2024-02-01T20:07:57.298Z,-88
2024-02-01T20:11:03.885Z,-88
2024-02-01T20:14:13.012Z,-79
2024-02-01T20:17:20.708Z,-78
2024-02-01T20:20:27.745Z,-79
2024-02-01T20:23:36.967Z,-79
2024-02-01T20:26:44.409Z,-79
2024-02-01T20:29:52.109Z,-78
2024-02-01T20:33:02.923Z,-78
2024-02-01T20:36:31.077Z,-79
2024-02-01T20:39:44.037Z,-79
2024-02-01T20:42:49.866Z,-79
2024-02-01T20:45:59.663Z,-79
2024-02-01T20:49:07.372Z,-79
2024-02-01T20:52:23.919Z,-79
2024-02-01T20:55:35.357Z,-79
2024-02-01T20:58:58.119Z,-79
2024-02-01T21:02:04.937Z,-79
2024-02-01T21:05:37.032Z,-77
2024-02-01T21:08:43.968Z,-78
2024-02-01T21:11:56.187Z,-78
2024-02-01T21:15:02.084Z,-79
2024-02-01T21:18:16.262Z,-78
2024-02-01T21:21:23.725Z,-78
2024-02-01T21:24:31.196Z,-79
2024-02-01T21:27:40.074Z,-78
2024-02-01T21:30:49.137Z,-77
2024-02-01T21:33:58.243Z,-79
2024-02-01T21:37:12.564Z,-77
2024-02-01T21:40:24.029Z,-77
2024-02-01T21:43:34.697Z,-78
2024-02-01T21:46:40.895Z,-79
2024-02-01T21:49:47.757Z,-79
2024-02-01T21:52:56.014Z,-77
2024-02-01T21:56:02.837Z,-78
2024-02-01T21:59:16.261Z,-78
2024-02-01T22:02:23.266Z,-78
2024-02-01T22:05:29.237Z,-78
2024-02-01T22:08:36.180Z,-78
2024-02-01T22:11:42.440Z,-78
2024-02-01T22:14:51.799Z,-79
2024-02-01T22:17:57.679Z,-79
2024-02-01T22:21:04.382Z,-78
2024-02-01T22:24:10.830Z,-79
2024-02-01T22:27:18.085Z,-79
2024-02-01T22:30:27.826Z,-77
2024-02-01T22:33:34.777Z,-78
2024-02-01T22:36:40.572Z,-78
2024-02-01T22:39:47.350Z,-77
2024-02-01T22:42:53.229Z,-79
2024-02-01T22:46:02.601Z,-78
2024-02-01T22:49:08.476Z,-79
2024-02-01T22:52:16.070Z,-78
2024-02-01T22:55:21.954Z,-78
2024-02-01T22:58:28.725Z,-77
2024-02-01T23:01:37.207Z,-77
2024-02-01T23:04:44.181Z,-77
2024-02-01T23:07:50.664Z,-78
2024-02-01T23:10:58.303Z,-78
2024-02-01T23:14:04.754Z,-78
2024-02-01T23:17:13.965Z,-78
2024-02-01T23:20:21.130Z,-77
2024-02-01T23:23:28.635Z,-77
2024-02-01T23:26:36.605Z,-78
2024-02-01T23:29:45.433Z,-77
2024-02-01T23:32:54.292Z,-78
2024-02-01T23:36:01.807Z,-78
2024-02-01T23:39:08.870Z,-78
2024-02-01T23:42:15.660Z,-77
2024-02-01T23:45:22.684Z,-78
2024-02-01T23:48:32.489Z,-78
2024-02-01T23:51:39.067Z,-78
2024-02-01T23:54:46.282Z,-78
2024-02-01T23:57:52.534Z,-78
